sensor_id;sensor_type;location;lat;lon;timestamp;P1;durP1;ratioP1;P2;durP2;ratioP2
69594;SDS011;56800;52.142;5.364;2023-09-07T00:01:36;6.40;;;4.65;;
69594;SDS011;56800;52.142;5.364;2023-09-07T00:04:03;9.80;;;5.20;;
69594;SDS011;56800;52.142;5.364;2023-09-07T00:06:30;7.50;;;5.20;;
69594;SDS011;56800;52.142;5.364;2023-09-07T00:08:57;8.27;;;5.30;;
69594;SDS011;56800;52.142;5.364;2023-09-07T00:11:23;8.25;;;5.72;;
69594;SDS011;56800;52.142;5.364;2023-09-07T00:13:50;8.32;;;5.25;;
69594;SDS011;56800;52.142;5.364;2023-09-07T00:16:17;6.90;;;5.45;;
69594;SDS011;56800;52.142;5.364;2023-09-07T00:18:44;8.70;;;5.30;;
69594;SDS011;56800;52.142;5.364;2023-09-07T00:21:11;9.05;;;5.10;;
69594;SDS011;56800;52.142;5.364;2023-09-07T00:23:39;8.38;;;5.68;;
69594;SDS011;56800;52.142;5.364;2023-09-07T00:26:07;8.60;;;5.20;;
69594;SDS011;56800;52.142;5.364;2023-09-07T00:28:33;12.52;;;5.65;;
69594;SDS011;56800;52.142;5.364;2023-09-07T00:31:01;15.93;;;5.27;;
69594;SDS011;56800;52.142;5.364;2023-09-07T00:33:28;7.63;;;6.00;;
69594;SDS011;56800;52.142;5.364;2023-09-07T00:35:54;8.25;;;5.65;;
69594;SDS011;56800;52.142;5.364;2023-09-07T00:38:21;9.95;;;5.35;;
69594;SDS011;56800;52.142;5.364;2023-09-07T00:40:48;7.70;;;5.45;;
69594;SDS011;56800;52.142;5.364;2023-09-07T00:43:15;11.57;;;6.07;;
69594;SDS011;56800;52.142;5.364;2023-09-07T00:45:41;7.38;;;5.78;;
69594;SDS011;56800;52.142;5.364;2023-09-07T00:48:08;11.05;;;5.68;;
69594;SDS011;56800;52.142;5.364;2023-09-07T00:50:37;7.82;;;5.35;;
69594;SDS011;56800;52.142;5.364;2023-09-07T00:53:05;10.82;;;5.28;;
69594;SDS011;56800;52.142;5.364;2023-09-07T00:55:32;9.53;;;7.00;;
69594;SDS011;56800;52.142;5.364;2023-09-07T00:58:01;8.65;;;6.90;;
69594;SDS011;56800;52.142;5.364;2023-09-07T01:00:29;10.15;;;6.80;;
69594;SDS011;56800;52.142;5.364;2023-09-07T01:02:57;9.38;;;6.50;;
69594;SDS011;56800;52.142;5.364;2023-09-07T01:05:32;9.70;;;6.97;;
69594;SDS011;56800;52.142;5.364;2023-09-07T01:08:07;10.40;;;6.03;;
69594;SDS011;56800;52.142;5.364;2023-09-07T01:10:41;11.45;;;6.50;;
69594;SDS011;56800;52.142;5.364;2023-09-07T01:13:08;9.32;;;6.60;;
69594;SDS011;56800;52.142;5.364;2023-09-07T01:15:35;9.40;;;6.28;;
69594;SDS011;56800;52.142;5.364;2023-09-07T01:18:03;11.70;;;6.28;;
69594;SDS011;56800;52.142;5.364;2023-09-07T01:20:49;10.13;;;6.43;;
69594;SDS011;56800;52.142;5.364;2023-09-07T01:23:17;11.10;;;6.43;;
69594;SDS011;56800;52.142;5.364;2023-09-07T01:25:44;10.45;;;6.97;;
69594;SDS011;56800;52.142;5.364;2023-09-07T01:28:12;9.23;;;7.03;;
69594;SDS011;56800;52.142;5.364;2023-09-07T01:30:39;9.98;;;7.13;;
69594;SDS011;56800;52.142;5.364;2023-09-07T01:33:06;9.13;;;6.10;;
69594;SDS011;56800;52.142;5.364;2023-09-07T01:35:34;11.75;;;6.90;;
69594;SDS011;56800;52.142;5.364;2023-09-07T01:38:03;12.02;;;6.68;;
69594;SDS011;56800;52.142;5.364;2023-09-07T01:40:29;10.63;;;7.28;;
69594;SDS011;56800;52.142;5.364;2023-09-07T01:42:56;10.52;;;6.80;;
69594;SDS011;56800;52.142;5.364;2023-09-07T01:45:23;11.07;;;7.00;;
69594;SDS011;56800;52.142;5.364;2023-09-07T01:47:50;9.77;;;6.72;;
69594;SDS011;56800;52.142;5.364;2023-09-07T01:50:18;11.95;;;7.40;;
69594;SDS011;56800;52.142;5.364;2023-09-07T01:52:46;12.85;;;7.05;;
69594;SDS011;56800;52.142;5.364;2023-09-07T01:55:14;8.15;;;6.63;;
69594;SDS011;56800;52.142;5.364;2023-09-07T01:57:41;9.80;;;6.37;;
69594;SDS011;56800;52.142;5.364;2023-09-07T02:00:09;9.88;;;6.57;;
69594;SDS011;56800;52.142;5.364;2023-09-07T02:02:36;13.73;;;7.32;;
69594;SDS011;56800;52.142;5.364;2023-09-07T02:05:04;10.07;;;6.53;;
69594;SDS011;56800;52.142;5.364;2023-09-07T02:07:31;10.48;;;6.97;;
69594;SDS011;56800;52.142;5.364;2023-09-07T02:09:58;10.90;;;7.03;;
69594;SDS011;56800;52.142;5.364;2023-09-07T02:12:25;10.85;;;7.63;;
69594;SDS011;56800;52.142;5.364;2023-09-07T02:14:51;11.70;;;7.07;;
69594;SDS011;56800;52.142;5.364;2023-09-07T02:17:18;9.30;;;7.00;;
69594;SDS011;56800;52.142;5.364;2023-09-07T02:19:45;12.18;;;7.25;;
69594;SDS011;56800;52.142;5.364;2023-09-07T02:22:12;11.53;;;7.13;;
69594;SDS011;56800;52.142;5.364;2023-09-07T02:24:39;9.88;;;6.45;;
69594;SDS011;56800;52.142;5.364;2023-09-07T02:27:05;9.63;;;7.22;;
69594;SDS011;56800;52.142;5.364;2023-09-07T02:29:32;12.75;;;7.07;;
69594;SDS011;56800;52.142;5.364;2023-09-07T02:31:59;10.27;;;7.63;;
69594;SDS011;56800;52.142;5.364;2023-09-07T02:34:26;13.43;;;7.40;;
69594;SDS011;56800;52.142;5.364;2023-09-07T02:36:52;11.20;;;7.50;;
69594;SDS011;56800;52.142;5.364;2023-09-07T02:39:19;9.95;;;7.45;;
69594;SDS011;56800;52.142;5.364;2023-09-07T02:41:46;11.25;;;7.40;;
69594;SDS011;56800;52.142;5.364;2023-09-07T02:44:13;12.48;;;7.68;;
69594;SDS011;56800;52.142;5.364;2023-09-07T02:46:40;12.10;;;7.57;;
69594;SDS011;56800;52.142;5.364;2023-09-07T02:49:06;10.25;;;7.53;;
69594;SDS011;56800;52.142;5.364;2023-09-07T02:51:33;13.32;;;8.25;;
69594;SDS011;56800;52.142;5.364;2023-09-07T02:54:01;11.60;;;7.75;;
69594;SDS011;56800;52.142;5.364;2023-09-07T02:56:29;9.63;;;8.43;;
69594;SDS011;56800;52.142;5.364;2023-09-07T02:58:56;12.73;;;8.00;;
69594;SDS011;56800;52.142;5.364;2023-09-07T03:01:23;9.50;;;7.82;;
69594;SDS011;56800;52.142;5.364;2023-09-07T03:03:50;11.27;;;8.75;;
69594;SDS011;56800;52.142;5.364;2023-09-07T03:06:16;14.90;;;8.38;;
69594;SDS011;56800;52.142;5.364;2023-09-07T03:08:43;9.98;;;7.60;;
69594;SDS011;56800;52.142;5.364;2023-09-07T03:11:11;9.87;;;8.07;;
69594;SDS011;56800;52.142;5.364;2023-09-07T03:13:38;11.35;;;7.32;;
69594;SDS011;56800;52.142;5.364;2023-09-07T03:16:05;11.30;;;8.80;;
69594;SDS011;56800;52.142;5.364;2023-09-07T03:18:32;14.90;;;8.63;;
69594;SDS011;56800;52.142;5.364;2023-09-07T03:21:00;12.65;;;7.93;;
69594;SDS011;56800;52.142;5.364;2023-09-07T03:23:28;12.93;;;9.33;;
69594;SDS011;56800;52.142;5.364;2023-09-07T03:25:57;11.52;;;8.40;;
69594;SDS011;56800;52.142;5.364;2023-09-07T03:28:24;11.48;;;8.13;;
69594;SDS011;56800;52.142;5.364;2023-09-07T03:30:52;11.55;;;8.38;;
69594;SDS011;56800;52.142;5.364;2023-09-07T03:33:19;13.00;;;8.90;;
69594;SDS011;56800;52.142;5.364;2023-09-07T03:35:46;10.30;;;7.83;;
69594;SDS011;56800;52.142;5.364;2023-09-07T03:38:13;13.35;;;8.70;;
69594;SDS011;56800;52.142;5.364;2023-09-07T03:40:40;12.73;;;8.18;;
69594;SDS011;56800;52.142;5.364;2023-09-07T03:43:07;12.68;;;8.38;;
69594;SDS011;56800;52.142;5.364;2023-09-07T03:45:33;11.85;;;7.95;;
69594;SDS011;56800;52.142;5.364;2023-09-07T03:48:00;13.07;;;7.90;;
69594;SDS011;56800;52.142;5.364;2023-09-07T03:50:27;16.60;;;8.07;;
69594;SDS011;56800;52.142;5.364;2023-09-07T03:52:54;12.93;;;8.40;;
69594;SDS011;56800;52.142;5.364;2023-09-07T03:55:21;12.25;;;8.27;;
69594;SDS011;56800;52.142;5.364;2023-09-07T03:57:48;9.80;;;8.75;;
69594;SDS011;56800;52.142;5.364;2023-09-07T04:00:15;13.63;;;7.87;;
69594;SDS011;56800;52.142;5.364;2023-09-07T04:02:42;10.77;;;7.63;;
69594;SDS011;56800;52.142;5.364;2023-09-07T04:05:09;14.82;;;8.32;;
69594;SDS011;56800;52.142;5.364;2023-09-07T04:07:37;10.77;;;8.07;;
69594;SDS011;56800;52.142;5.364;2023-09-07T04:10:05;11.85;;;8.43;;
69594;SDS011;56800;52.142;5.364;2023-09-07T04:12:32;11.03;;;7.63;;
69594;SDS011;56800;52.142;5.364;2023-09-07T04:15:02;11.75;;;7.72;;
69594;SDS011;56800;52.142;5.364;2023-09-07T04:17:30;13.23;;;8.88;;
69594;SDS011;56800;52.142;5.364;2023-09-07T04:19:58;12.82;;;8.20;;
69594;SDS011;56800;52.142;5.364;2023-09-07T04:22:25;13.13;;;8.48;;
69594;SDS011;56800;52.142;5.364;2023-09-07T04:24:52;11.87;;;7.60;;
69594;SDS011;56800;52.142;5.364;2023-09-07T04:27:19;10.90;;;8.20;;
69594;SDS011;56800;52.142;5.364;2023-09-07T04:29:45;9.93;;;8.02;;
69594;SDS011;56800;52.142;5.364;2023-09-07T04:32:12;11.38;;;8.68;;
69594;SDS011;56800;52.142;5.364;2023-09-07T04:34:39;13.27;;;7.70;;
69594;SDS011;56800;52.142;5.364;2023-09-07T04:37:05;16.73;;;9.07;;
69594;SDS011;56800;52.142;5.364;2023-09-07T04:39:32;11.05;;;8.10;;
69594;SDS011;56800;52.142;5.364;2023-09-07T04:41:59;10.77;;;7.95;;
69594;SDS011;56800;52.142;5.364;2023-09-07T04:44:26;10.80;;;8.40;;
69594;SDS011;56800;52.142;5.364;2023-09-07T04:46:54;11.68;;;8.32;;
69594;SDS011;56800;52.142;5.364;2023-09-07T04:49:23;9.77;;;7.87;;
69594;SDS011;56800;52.142;5.364;2023-09-07T04:51:52;12.05;;;8.98;;
69594;SDS011;56800;52.142;5.364;2023-09-07T04:54:20;9.98;;;8.30;;
69594;SDS011;56800;52.142;5.364;2023-09-07T04:56:47;14.13;;;8.88;;
69594;SDS011;56800;52.142;5.364;2023-09-07T04:59:14;10.98;;;8.23;;
69594;SDS011;56800;52.142;5.364;2023-09-07T05:01:41;12.97;;;9.00;;
69594;SDS011;56800;52.142;5.364;2023-09-07T05:04:07;10.77;;;8.77;;
69594;SDS011;56800;52.142;5.364;2023-09-07T05:06:34;11.52;;;9.30;;
69594;SDS011;56800;52.142;5.364;2023-09-07T05:09:03;11.32;;;8.05;;
69594;SDS011;56800;52.142;5.364;2023-09-07T05:11:30;11.63;;;9.23;;
69594;SDS011;56800;52.142;5.364;2023-09-07T05:14:01;12.40;;;8.70;;
69594;SDS011;56800;52.142;5.364;2023-09-07T05:16:28;13.00;;;9.13;;
69594;SDS011;56800;52.142;5.364;2023-09-07T05:18:55;12.70;;;9.02;;
69594;SDS011;56800;52.142;5.364;2023-09-07T05:21:22;12.75;;;9.50;;
69594;SDS011;56800;52.142;5.364;2023-09-07T05:23:49;11.07;;;8.77;;
69594;SDS011;56800;52.142;5.364;2023-09-07T05:26:20;13.27;;;8.77;;
69594;SDS011;56800;52.142;5.364;2023-09-07T05:28:48;10.98;;;8.88;;
69594;SDS011;56800;52.142;5.364;2023-09-07T05:31:15;11.57;;;9.00;;
69594;SDS011;56800;52.142;5.364;2023-09-07T05:33:42;10.93;;;8.35;;
69594;SDS011;56800;52.142;5.364;2023-09-07T05:36:09;13.07;;;8.30;;
69594;SDS011;56800;52.142;5.364;2023-09-07T05:38:36;14.37;;;7.90;;
69594;SDS011;56800;52.142;5.364;2023-09-07T05:41:04;13.93;;;8.45;;
69594;SDS011;56800;52.142;5.364;2023-09-07T05:43:31;16.23;;;8.43;;
69594;SDS011;56800;52.142;5.364;2023-09-07T05:45:58;13.48;;;8.20;;
69594;SDS011;56800;52.142;5.364;2023-09-07T05:48:24;11.88;;;8.52;;
69594;SDS011;56800;52.142;5.364;2023-09-07T05:50:52;14.17;;;8.23;;
69594;SDS011;56800;52.142;5.364;2023-09-07T05:53:19;12.63;;;8.27;;
69594;SDS011;56800;52.142;5.364;2023-09-07T05:55:50;10.10;;;7.35;;
69594;SDS011;56800;52.142;5.364;2023-09-07T05:58:17;10.93;;;7.50;;
69594;SDS011;56800;52.142;5.364;2023-09-07T06:00:44;10.52;;;7.90;;
69594;SDS011;56800;52.142;5.364;2023-09-07T06:03:11;12.00;;;8.00;;
69594;SDS011;56800;52.142;5.364;2023-09-07T06:05:38;11.00;;;8.30;;
69594;SDS011;56800;52.142;5.364;2023-09-07T06:08:06;11.98;;;8.80;;
69594;SDS011;56800;52.142;5.364;2023-09-07T06:10:33;13.30;;;8.18;;
69594;SDS011;56800;52.142;5.364;2023-09-07T06:13:00;14.00;;;8.57;;
69594;SDS011;56800;52.142;5.364;2023-09-07T06:15:29;10.33;;;8.20;;
69594;SDS011;56800;52.142;5.364;2023-09-07T06:17:57;10.73;;;8.02;;
69594;SDS011;56800;52.142;5.364;2023-09-07T06:20:24;13.23;;;8.70;;
69594;SDS011;56800;52.142;5.364;2023-09-07T06:22:51;10.25;;;8.38;;
69594;SDS011;56800;52.142;5.364;2023-09-07T06:25:18;12.60;;;8.32;;
69594;SDS011;56800;52.142;5.364;2023-09-07T06:27:45;11.77;;;8.10;;
69594;SDS011;56800;52.142;5.364;2023-09-07T06:30:12;13.68;;;7.80;;
69594;SDS011;56800;52.142;5.364;2023-09-07T06:32:39;11.20;;;7.90;;
69594;SDS011;56800;52.142;5.364;2023-09-07T06:35:06;14.20;;;7.18;;
69594;SDS011;56800;52.142;5.364;2023-09-07T06:37:33;16.05;;;7.75;;
69594;SDS011;56800;52.142;5.364;2023-09-07T06:40:02;11.33;;;7.37;;
69594;SDS011;56800;52.142;5.364;2023-09-07T06:42:30;15.50;;;8.10;;
69594;SDS011;56800;52.142;5.364;2023-09-07T06:44:57;10.85;;;7.65;;
69594;SDS011;56800;52.142;5.364;2023-09-07T06:47:24;15.30;;;8.05;;
69594;SDS011;56800;52.142;5.364;2023-09-07T06:49:51;11.40;;;7.40;;
69594;SDS011;56800;52.142;5.364;2023-09-07T06:52:17;13.87;;;8.00;;
69594;SDS011;56800;52.142;5.364;2023-09-07T06:54:44;11.00;;;8.00;;
69594;SDS011;56800;52.142;5.364;2023-09-07T06:57:11;11.43;;;8.02;;
69594;SDS011;56800;52.142;5.364;2023-09-07T06:59:38;16.13;;;7.22;;
69594;SDS011;56800;52.142;5.364;2023-09-07T07:02:05;12.50;;;7.60;;
69594;SDS011;56800;52.142;5.364;2023-09-07T07:04:31;10.10;;;6.97;;
69594;SDS011;56800;52.142;5.364;2023-09-07T07:06:58;12.50;;;7.07;;
69594;SDS011;56800;52.142;5.364;2023-09-07T07:09:27;11.43;;;7.57;;
69594;SDS011;56800;52.142;5.364;2023-09-07T07:11:55;11.40;;;7.22;;
69594;SDS011;56800;52.142;5.364;2023-09-07T07:14:22;14.18;;;7.80;;
69594;SDS011;56800;52.142;5.364;2023-09-07T07:16:49;11.03;;;6.50;;
69594;SDS011;56800;52.142;5.364;2023-09-07T07:19:16;13.70;;;6.60;;
69594;SDS011;56800;52.142;5.364;2023-09-07T07:21:43;9.50;;;6.93;;
69594;SDS011;56800;52.142;5.364;2023-09-07T07:24:10;12.02;;;6.55;;
69594;SDS011;56800;52.142;5.364;2023-09-07T07:26:36;13.98;;;6.82;;
69594;SDS011;56800;52.142;5.364;2023-09-07T07:29:03;11.37;;;6.13;;
69594;SDS011;56800;52.142;5.364;2023-09-07T07:31:30;9.95;;;6.95;;
69594;SDS011;56800;52.142;5.364;2023-09-07T07:33:57;13.38;;;6.50;;
69594;SDS011;56800;52.142;5.364;2023-09-07T07:36:24;7.95;;;5.55;;
69594;SDS011;56800;52.142;5.364;2023-09-07T07:38:51;16.17;;;6.25;;
69594;SDS011;56800;52.142;5.364;2023-09-07T07:41:17;15.13;;;6.13;;
69594;SDS011;56800;52.142;5.364;2023-09-07T07:43:44;7.88;;;5.72;;
69594;SDS011;56800;52.142;5.364;2023-09-07T07:46:11;13.15;;;7.20;;
69594;SDS011;56800;52.142;5.364;2023-09-07T07:48:42;10.35;;;6.15;;
69594;SDS011;56800;52.142;5.364;2023-09-07T07:51:08;10.55;;;5.68;;
69594;SDS011;56800;52.142;5.364;2023-09-07T07:53:37;10.07;;;5.93;;
69594;SDS011;56800;52.142;5.364;2023-09-07T07:56:04;15.38;;;6.72;;
69594;SDS011;56800;52.142;5.364;2023-09-07T07:58:31;9.35;;;6.32;;
69594;SDS011;56800;52.142;5.364;2023-09-07T08:00:58;11.10;;;6.00;;
69594;SDS011;56800;52.142;5.364;2023-09-07T08:03:25;9.88;;;6.43;;
69594;SDS011;56800;52.142;5.364;2023-09-07T08:05:52;9.33;;;6.20;;
69594;SDS011;56800;52.142;5.364;2023-09-07T08:08:19;11.95;;;6.40;;
69594;SDS011;56800;52.142;5.364;2023-09-07T08:10:45;9.38;;;6.38;;
69594;SDS011;56800;52.142;5.364;2023-09-07T08:13:12;9.10;;;6.47;;
69594;SDS011;56800;52.142;5.364;2023-09-07T08:15:39;12.60;;;6.80;;
69594;SDS011;56800;52.142;5.364;2023-09-07T08:18:06;11.47;;;6.30;;
69594;SDS011;56800;52.142;5.364;2023-09-07T08:20:35;12.00;;;7.55;;
69594;SDS011;56800;52.142;5.364;2023-09-07T08:23:02;10.75;;;5.88;;
69594;SDS011;56800;52.142;5.364;2023-09-07T08:25:33;9.88;;;6.38;;
69594;SDS011;56800;52.142;5.364;2023-09-07T08:28:01;13.73;;;6.10;;
69594;SDS011;56800;52.142;5.364;2023-09-07T08:30:32;9.70;;;6.00;;
69594;SDS011;56800;52.142;5.364;2023-09-07T08:33:00;10.35;;;7.00;;
69594;SDS011;56800;52.142;5.364;2023-09-07T08:35:28;10.77;;;6.55;;
69594;SDS011;56800;52.142;5.364;2023-09-07T08:37:56;17.10;;;7.53;;
69594;SDS011;56800;52.142;5.364;2023-09-07T08:40:25;9.48;;;6.93;;
69594;SDS011;56800;52.142;5.364;2023-09-07T08:42:53;10.30;;;6.17;;
69594;SDS011;56800;52.142;5.364;2023-09-07T08:45:21;12.85;;;6.30;;
69594;SDS011;56800;52.142;5.364;2023-09-07T08:47:51;9.18;;;6.40;;
69594;SDS011;56800;52.142;5.364;2023-09-07T08:50:21;12.63;;;6.05;;
69594;SDS011;56800;52.142;5.364;2023-09-07T08:52:51;8.10;;;5.53;;
69594;SDS011;56800;52.142;5.364;2023-09-07T08:55:19;11.67;;;6.10;;
69594;SDS011;56800;52.142;5.364;2023-09-07T08:57:47;7.55;;;5.43;;
69594;SDS011;56800;52.142;5.364;2023-09-07T09:00:14;8.65;;;6.40;;
69594;SDS011;56800;52.142;5.364;2023-09-07T09:02:43;9.68;;;5.15;;
69594;SDS011;56800;52.142;5.364;2023-09-07T09:05:22;9.18;;;5.53;;
69594;SDS011;56800;52.142;5.364;2023-09-07T09:08:00;8.87;;;4.83;;
69594;SDS011;56800;52.142;5.364;2023-09-07T09:10:29;11.70;;;4.95;;
69594;SDS011;56800;52.142;5.364;2023-09-07T09:12:55;8.63;;;5.50;;
69594;SDS011;56800;52.142;5.364;2023-09-07T09:15:23;8.05;;;4.80;;
69594;SDS011;56800;52.142;5.364;2023-09-07T09:17:49;9.77;;;4.88;;
69594;SDS011;56800;52.142;5.364;2023-09-07T09:20:23;12.23;;;5.13;;
69594;SDS011;56800;52.142;5.364;2023-09-07T09:22:51;6.95;;;5.47;;
69594;SDS011;56800;52.142;5.364;2023-09-07T09:25:19;8.55;;;4.85;;
69594;SDS011;56800;52.142;5.364;2023-09-07T09:27:47;9.48;;;5.50;;
69594;SDS011;56800;52.142;5.364;2023-09-07T09:30:14;9.18;;;4.63;;
69594;SDS011;56800;52.142;5.364;2023-09-07T09:32:43;11.47;;;4.30;;
69594;SDS011;56800;52.142;5.364;2023-09-07T09:35:10;10.40;;;4.20;;
69594;SDS011;56800;52.142;5.364;2023-09-07T09:37:47;6.18;;;4.43;;
69594;SDS011;56800;52.142;5.364;2023-09-07T09:40:17;7.63;;;4.00;;
69594;SDS011;56800;52.142;5.364;2023-09-07T09:42:44;9.18;;;4.43;;
69594;SDS011;56800;52.142;5.364;2023-09-07T09:45:11;9.20;;;4.90;;
69594;SDS011;56800;52.142;5.364;2023-09-07T09:47:39;10.48;;;4.10;;
69594;SDS011;56800;52.142;5.364;2023-09-07T09:50:10;7.80;;;5.07;;
69594;SDS011;56800;52.142;5.364;2023-09-07T09:52:38;9.00;;;4.88;;
69594;SDS011;56800;52.142;5.364;2023-09-07T09:55:06;6.63;;;4.53;;
69594;SDS011;56800;52.142;5.364;2023-09-07T09:57:39;6.43;;;4.00;;
69594;SDS011;56800;52.142;5.364;2023-09-07T10:00:06;5.95;;;4.30;;
69594;SDS011;56800;52.142;5.364;2023-09-07T10:02:44;13.57;;;4.57;;
69594;SDS011;56800;52.142;5.364;2023-09-07T10:05:15;5.75;;;4.05;;
69594;SDS011;56800;52.142;5.364;2023-09-07T10:07:44;6.90;;;4.20;;
69594;SDS011;56800;52.142;5.364;2023-09-07T10:10:14;7.47;;;4.03;;
69594;SDS011;56800;52.142;5.364;2023-09-07T10:12:45;8.02;;;4.60;;
69594;SDS011;56800;52.142;5.364;2023-09-07T10:15:20;8.07;;;4.50;;
69594;SDS011;56800;52.142;5.364;2023-09-07T10:18:01;5.10;;;3.97;;
69594;SDS011;56800;52.142;5.364;2023-09-07T10:20:49;6.38;;;5.15;;
69594;SDS011;56800;52.142;5.364;2023-09-07T10:23:16;7.23;;;5.07;;
69594;SDS011;56800;52.142;5.364;2023-09-07T10:26:35;6.28;;;4.65;;
69594;SDS011;56800;52.142;5.364;2023-09-07T10:30:13;9.93;;;4.70;;
69594;SDS011;56800;52.142;5.364;2023-09-07T10:33:33;6.43;;;4.82;;
69594;SDS011;56800;52.142;5.364;2023-09-07T10:36:03;8.50;;;4.43;;
69594;SDS011;56800;52.142;5.364;2023-09-07T10:38:33;10.33;;;4.50;;
69594;SDS011;56800;52.142;5.364;2023-09-07T10:41:02;7.95;;;4.40;;
69594;SDS011;56800;52.142;5.364;2023-09-07T10:43:31;10.88;;;5.18;;
69594;SDS011;56800;52.142;5.364;2023-09-07T10:46:00;10.52;;;4.57;;
69594;SDS011;56800;52.142;5.364;2023-09-07T10:48:31;9.73;;;5.15;;
69594;SDS011;56800;52.142;5.364;2023-09-07T10:50:59;7.80;;;5.20;;
69594;SDS011;56800;52.142;5.364;2023-09-07T10:53:27;5.93;;;4.32;;
69594;SDS011;56800;52.142;5.364;2023-09-07T10:56:13;8.57;;;5.05;;
69594;SDS011;56800;52.142;5.364;2023-09-07T10:58:40;9.57;;;4.50;;
69594;SDS011;56800;52.142;5.364;2023-09-07T11:01:08;8.35;;;4.55;;
69594;SDS011;56800;52.142;5.364;2023-09-07T11:03:36;9.07;;;5.00;;
69594;SDS011;56800;52.142;5.364;2023-09-07T11:06:06;11.05;;;4.88;;
69594;SDS011;56800;52.142;5.364;2023-09-07T11:08:36;9.57;;;5.13;;
69594;SDS011;56800;52.142;5.364;2023-09-07T11:11:03;6.75;;;4.80;;
69594;SDS011;56800;52.142;5.364;2023-09-07T11:13:31;7.13;;;4.97;;
69594;SDS011;56800;52.142;5.364;2023-09-07T11:15:59;8.73;;;4.87;;
69594;SDS011;56800;52.142;5.364;2023-09-07T11:18:26;6.35;;;5.00;;
69594;SDS011;56800;52.142;5.364;2023-09-07T11:20:53;8.93;;;5.20;;
69594;SDS011;56800;52.142;5.364;2023-09-07T11:23:20;9.73;;;5.20;;
69594;SDS011;56800;52.142;5.364;2023-09-07T11:25:49;7.60;;;5.07;;
69594;SDS011;56800;52.142;5.364;2023-09-07T11:28:18;6.37;;;4.40;;
69594;SDS011;56800;52.142;5.364;2023-09-07T11:30:53;6.45;;;4.78;;
69594;SDS011;56800;52.142;5.364;2023-09-07T11:33:22;6.35;;;4.82;;
69594;SDS011;56800;52.142;5.364;2023-09-07T11:35:49;7.40;;;5.32;;
69594;SDS011;56800;52.142;5.364;2023-09-07T11:38:17;8.90;;;4.43;;
69594;SDS011;56800;52.142;5.364;2023-09-07T11:40:44;8.37;;;4.73;;
69594;SDS011;56800;52.142;5.364;2023-09-07T11:43:15;6.00;;;4.57;;
69594;SDS011;56800;52.142;5.364;2023-09-07T11:45:43;10.40;;;4.93;;
69594;SDS011;56800;52.142;5.364;2023-09-07T11:48:15;16.98;;;4.93;;
69594;SDS011;56800;52.142;5.364;2023-09-07T11:51:56;6.28;;;4.72;;
69594;SDS011;56800;52.142;5.364;2023-09-07T11:54:25;7.77;;;5.03;;
69594;SDS011;56800;52.142;5.364;2023-09-07T11:56:53;7.07;;;5.22;;
69594;SDS011;56800;52.142;5.364;2023-09-07T11:59:20;6.22;;;4.90;;
69594;SDS011;56800;52.142;5.364;2023-09-07T12:01:46;6.40;;;5.03;;
69594;SDS011;56800;52.142;5.364;2023-09-07T12:04:14;9.68;;;4.75;;
69594;SDS011;56800;52.142;5.364;2023-09-07T12:06:41;8.40;;;5.73;;
69594;SDS011;56800;52.142;5.364;2023-09-07T12:09:08;9.18;;;4.35;;
69594;SDS011;56800;52.142;5.364;2023-09-07T12:11:35;6.35;;;4.55;;
69594;SDS011;56800;52.142;5.364;2023-09-07T12:14:06;9.05;;;4.45;;
69594;SDS011;56800;52.142;5.364;2023-09-07T12:16:36;8.60;;;4.68;;
69594;SDS011;56800;52.142;5.364;2023-09-07T12:19:03;11.30;;;5.00;;
69594;SDS011;56800;52.142;5.364;2023-09-07T12:21:30;5.85;;;5.25;;
69594;SDS011;56800;52.142;5.364;2023-09-07T12:23:57;8.35;;;5.13;;
69594;SDS011;56800;52.142;5.364;2023-09-07T12:26:23;5.85;;;5.07;;
69594;SDS011;56800;52.142;5.364;2023-09-07T12:28:51;10.80;;;5.07;;
69594;SDS011;56800;52.142;5.364;2023-09-07T12:31:17;9.33;;;5.23;;
69594;SDS011;56800;52.142;5.364;2023-09-07T12:33:47;7.90;;;4.53;;
69594;SDS011;56800;52.142;5.364;2023-09-07T12:36:14;9.40;;;5.15;;
69594;SDS011;56800;52.142;5.364;2023-09-07T12:38:41;6.47;;;4.78;;
69594;SDS011;56800;52.142;5.364;2023-09-07T12:41:08;12.05;;;5.60;;
69594;SDS011;56800;52.142;5.364;2023-09-07T12:43:36;7.43;;;5.03;;
69594;SDS011;56800;52.142;5.364;2023-09-07T12:46:02;10.90;;;6.43;;
69594;SDS011;56800;52.142;5.364;2023-09-07T12:48:30;6.00;;;5.18;;
69594;SDS011;56800;52.142;5.364;2023-09-07T12:50:57;8.13;;;5.30;;
69594;SDS011;56800;52.142;5.364;2023-09-07T12:53:23;10.57;;;5.00;;
69594;SDS011;56800;52.142;5.364;2023-09-07T12:55:54;7.30;;;5.33;;
69594;SDS011;56800;52.142;5.364;2023-09-07T12:58:21;6.55;;;4.93;;
69594;SDS011;56800;52.142;5.364;2023-09-07T13:00:48;8.18;;;4.88;;
69594;SDS011;56800;52.142;5.364;2023-09-07T13:03:17;12.75;;;5.70;;
69594;SDS011;56800;52.142;5.364;2023-09-07T13:05:44;7.00;;;5.35;;
69594;SDS011;56800;52.142;5.364;2023-09-07T13:08:11;6.97;;;5.17;;
69594;SDS011;56800;52.142;5.364;2023-09-07T13:10:38;7.05;;;5.22;;
69594;SDS011;56800;52.142;5.364;2023-09-07T13:13:06;9.00;;;5.00;;
69594;SDS011;56800;52.142;5.364;2023-09-07T13:15:33;8.73;;;6.03;;
69594;SDS011;56800;52.142;5.364;2023-09-07T13:18:00;6.72;;;4.55;;
69594;SDS011;56800;52.142;5.364;2023-09-07T13:20:27;7.10;;;5.97;;
69594;SDS011;56800;52.142;5.364;2023-09-07T13:22:54;7.78;;;5.07;;
69594;SDS011;56800;52.142;5.364;2023-09-07T13:25:21;11.80;;;5.22;;
69594;SDS011;56800;52.142;5.364;2023-09-07T13:27:47;9.75;;;5.88;;
69594;SDS011;56800;52.142;5.364;2023-09-07T13:30:15;10.70;;;5.90;;
69594;SDS011;56800;52.142;5.364;2023-09-07T13:32:42;8.50;;;4.97;;
69594;SDS011;56800;52.142;5.364;2023-09-07T13:35:12;8.07;;;5.70;;
69594;SDS011;56800;52.142;5.364;2023-09-07T13:37:39;10.10;;;5.82;;
69594;SDS011;56800;52.142;5.364;2023-09-07T13:40:06;7.68;;;5.88;;
69594;SDS011;56800;52.142;5.364;2023-09-07T13:42:34;9.05;;;5.32;;
69594;SDS011;56800;52.142;5.364;2023-09-07T13:45:01;6.40;;;4.87;;
69594;SDS011;56800;52.142;5.364;2023-09-07T13:47:28;12.05;;;6.25;;
69594;SDS011;56800;52.142;5.364;2023-09-07T13:49:54;9.10;;;5.70;;
69594;SDS011;56800;52.142;5.364;2023-09-07T13:52:21;7.43;;;5.63;;
69594;SDS011;56800;52.142;5.364;2023-09-07T13:54:48;7.43;;;5.82;;
69594;SDS011;56800;52.142;5.364;2023-09-07T13:57:15;8.60;;;5.07;;
69594;SDS011;56800;52.142;5.364;2023-09-07T13:59:42;6.82;;;4.78;;
69594;SDS011;56800;52.142;5.364;2023-09-07T14:02:08;8.32;;;4.63;;
69594;SDS011;56800;52.142;5.364;2023-09-07T14:04:35;6.20;;;4.78;;
69594;SDS011;56800;52.142;5.364;2023-09-07T14:07:02;10.23;;;5.72;;
69594;SDS011;56800;52.142;5.364;2023-09-07T14:09:29;11.40;;;6.47;;
69594;SDS011;56800;52.142;5.364;2023-09-07T14:11:56;8.75;;;4.93;;
69594;SDS011;56800;52.142;5.364;2023-09-07T14:14:22;8.70;;;6.88;;
69594;SDS011;56800;52.142;5.364;2023-09-07T14:16:49;8.98;;;5.45;;
69594;SDS011;56800;52.142;5.364;2023-09-07T14:19:21;6.68;;;5.88;;
69594;SDS011;56800;52.142;5.364;2023-09-07T14:21:49;7.83;;;5.13;;
69594;SDS011;56800;52.142;5.364;2023-09-07T14:24:16;6.72;;;5.03;;
69594;SDS011;56800;52.142;5.364;2023-09-07T14:26:46;11.18;;;5.90;;
69594;SDS011;56800;52.142;5.364;2023-09-07T14:29:14;6.45;;;5.05;;
69594;SDS011;56800;52.142;5.364;2023-09-07T14:31:41;7.88;;;6.25;;
69594;SDS011;56800;52.142;5.364;2023-09-07T14:34:09;9.10;;;5.83;;
69594;SDS011;56800;52.142;5.364;2023-09-07T14:36:37;8.90;;;5.40;;
69594;SDS011;56800;52.142;5.364;2023-09-07T14:39:07;7.80;;;4.88;;
69594;SDS011;56800;52.142;5.364;2023-09-07T14:41:38;10.15;;;5.57;;
69594;SDS011;56800;52.142;5.364;2023-09-07T14:44:06;7.35;;;5.88;;
69594;SDS011;56800;52.142;5.364;2023-09-07T14:46:32;9.97;;;5.00;;
69594;SDS011;56800;52.142;5.364;2023-09-07T14:48:59;7.38;;;6.68;;